»·PEaware :: N5112G KBUR-KVCV

N5112G :: KBUR-KVCV

FLIGHT INFORMATION

Flight Status: Arrived
Operator: Privately registered:
United States
More flights under this callsign
Pilot: James H. (28678)
Aircraft: CESSNA 182 SKYLANE
(C182)
More flights by this aircraft type
Origin: KBUR Bob Hope-Burbank
United States
Destination: KVCV Socal Logistics
United States
More flights between these airports :: More routes between these airports
Route: +VNY3 PMD
File this flight plan on PilotEdge
Remarks:
Altitude:
(Current/Filed)
7,000ft
Speed:
(Current/Filed)
105kts
Departed: 14-Nov-20 10:08 AM
Arrived: 14-Nov-20 10:55 AM
Distance/Time
Traveled:
54nm/0:47
Distance/Time
To Go:
Arrived

Flight Plot

Page will automatically refresh every two minutes.

Flight plan parsing failed; only flown route is shown


Map Options




Map Legend


Flown Route
Filed Route
Departure Airport
Arrival Airport
Navaid (VOR, NDB)
Fix

Horizontal Profiles

Position Reports

Time Latitude Longitude Heading Altitude Ground
Speed
14-Nov-20 09:58 34.196506 -118.368374 90 722ft 0kts
14-Nov-20 09:59 34.196506 -118.368374 90 722ft 0kts
14-Nov-20 10:00 34.196506 -118.368374 90 722ft 0kts
14-Nov-20 10:01 34.196506 -118.368374 90 722ft 0kts
14-Nov-20 10:02 34.196506 -118.368374 90 722ft 0kts
14-Nov-20 10:03 34.196763 -118.366770 31 722ft 14kts
14-Nov-20 10:04 34.196967 -118.368626 299 723ft 0kts
14-Nov-20 10:05 34.197018 -118.368715 318 723ft 1kts
14-Nov-20 10:06 34.197020 -118.368717 318 723ft 0kts
14-Nov-20 10:07 34.197366 -118.368953 344 724ft 18kts
14-Nov-20 10:08 34.196428 -118.351593 133 1350ft 71kts
14-Nov-20 10:09 34.182312 -118.364554 267 2347ft 75kts
14-Nov-20 10:09 34.188460 -118.383661 294 3166ft 75kts
14-Nov-20 10:11 34.203169 -118.402900 353 4257ft 72kts
14-Nov-20 10:12 34.222845 -118.404818 356 5119ft 69kts
14-Nov-20 10:12 34.238802 -118.408562 342 5751ft 73kts
14-Nov-20 10:14 34.261930 -118.416514 341 6628ft 75kts
14-Nov-20 10:14 34.283008 -118.424011 346 6789ft 117kts
14-Nov-20 10:16 34.321837 -118.436367 342 6854ft 130kts
14-Nov-20 10:16 34.350191 -118.448472 340 6857ft 130kts
14-Nov-20 10:17 34.384138 -118.452341 51 6808ft 132kts
14-Nov-20 10:18 34.406157 -118.417799 50 6838ft 130kts
14-Nov-20 10:19 34.429285 -118.384163 49 6856ft 129kts
14-Nov-20 10:20 34.452085 -118.350189 52 6856ft 130kts
14-Nov-20 10:21 34.470840 -118.320148 52 6856ft 130kts
14-Nov-20 10:22 34.492659 -118.285169 52 6856ft 130kts
14-Nov-20 10:23 34.514438 -118.250249 52 6856ft 130kts
14-Nov-20 10:24 34.536287 -118.215211 52 6856ft 130kts
14-Nov-20 10:25 34.558432 -118.180662 51 6856ft 130kts
14-Nov-20 10:26 34.580531 -118.145918 53 6856ft 130kts
14-Nov-20 10:27 34.601848 -118.110460 53 6856ft 130kts
14-Nov-20 10:28 34.623148 -118.074865 53 6856ft 130kts
14-Nov-20 10:29 34.628871 -118.033189 91 6856ft 130kts
14-Nov-20 10:30 34.627704 -117.989205 91 6856ft 130kts
14-Nov-20 10:31 34.626545 -117.945302 91 6856ft 130kts
14-Nov-20 10:32 34.625393 -117.901382 91 6856ft 130kts
14-Nov-20 10:33 34.622347 -117.857750 95 6856ft 130kts
14-Nov-20 10:34 34.619772 -117.813817 93 6856ft 130kts
14-Nov-20 10:35 34.620446 -117.770740 53 6854ft 130kts
14-Nov-20 10:36 34.646163 -117.739945 42 6856ft 130kts
14-Nov-20 10:37 34.672732 -117.710038 42 6856ft 130kts
14-Nov-20 10:38 34.699243 -117.680198 42 6856ft 130kts
14-Nov-20 10:39 34.725710 -117.650400 42 6856ft 130kts
14-Nov-20 10:40 34.747878 -117.625436 42 6856ft 130kts
14-Nov-20 10:41 34.774357 -117.595605 42 6856ft 130kts
14-Nov-20 10:42 34.800854 -117.565692 45 6855ft 130kts
14-Nov-20 10:43 34.805481 -117.523248 92 6512ft 131kts
14-Nov-20 10:44 34.803602 -117.481497 93 6368ft 113kts
14-Nov-20 10:45 34.802348 -117.443325 92 6164ft 111kts
14-Nov-20 10:46 34.800867 -117.407592 91 6085ft 99kts
14-Nov-20 10:47 34.783222 -117.389523 170 5969ft 100kts
14-Nov-20 10:48 34.755478 -117.388243 179 5712ft 102kts
14-Nov-20 10:49 34.730130 -117.388310 178 5121ft 92kts
14-Nov-20 10:50 34.704748 -117.387419 178 4428ft 88kts
14-Nov-20 10:51 34.680854 -117.386717 180 3988ft 85kts
14-Nov-20 10:52 34.656933 -117.387264 177 3574ft 87kts
14-Nov-20 10:53 34.632584 -117.386360 182 3156ft 86kts
14-Nov-20 10:54 34.612347 -117.386636 179 2824ft 35kts
14-Nov-20 10:55 34.610644 -117.385242 102 2827ft 0kts

Navigation Log

Ident Type
Flight plan parsing failed, navigation log unavailable